sensor_id;sensor_type;location;lat;lon;timestamp;P1;durP1;ratioP1;P2;durP2;ratioP2
33654;SDS011;19997;51.274;22.506;2023-04-03T00:02:13;4.55;;;2.88;;
33654;SDS011;19997;51.274;22.506;2023-04-03T00:04:40;4.50;;;2.50;;
33654;SDS011;19997;51.274;22.506;2023-04-03T00:07:07;4.07;;;2.67;;
33654;SDS011;19997;51.274;22.506;2023-04-03T00:09:36;5.15;;;3.08;;
33654;SDS011;19997;51.274;22.506;2023-04-03T00:12:03;5.03;;;2.83;;
33654;SDS011;19997;51.274;22.506;2023-04-03T00:14:30;5.50;;;2.78;;
33654;SDS011;19997;51.274;22.506;2023-04-03T00:16:57;4.88;;;2.50;;
33654;SDS011;19997;51.274;22.506;2023-04-03T00:19:25;3.42;;;2.35;;
33654;SDS011;19997;51.274;22.506;2023-04-03T00:21:52;3.15;;;2.30;;
33654;SDS011;19997;51.274;22.506;2023-04-03T00:24:19;4.68;;;2.40;;
33654;SDS011;19997;51.274;22.506;2023-04-03T00:26:48;6.78;;;2.53;;
33654;SDS011;19997;51.274;22.506;2023-04-03T00:29:15;4.45;;;2.67;;
33654;SDS011;19997;51.274;22.506;2023-04-03T00:31:42;3.65;;;2.28;;
33654;SDS011;19997;51.274;22.506;2023-04-03T00:34:09;3.05;;;2.45;;
33654;SDS011;19997;51.274;22.506;2023-04-03T00:36:36;4.60;;;2.65;;
33654;SDS011;19997;51.274;22.506;2023-04-03T00:39:03;4.75;;;2.45;;
33654;SDS011;19997;51.274;22.506;2023-04-03T00:41:31;4.50;;;2.78;;
33654;SDS011;19997;51.274;22.506;2023-04-03T00:43:59;5.10;;;2.50;;
33654;SDS011;19997;51.274;22.506;2023-04-03T00:46:26;4.80;;;2.72;;
33654;SDS011;19997;51.274;22.506;2023-04-03T00:48:53;4.05;;;2.50;;
33654;SDS011;19997;51.274;22.506;2023-04-03T00:51:22;5.07;;;2.45;;
33654;SDS011;19997;51.274;22.506;2023-04-03T00:53:52;3.80;;;2.42;;
33654;SDS011;19997;51.274;22.506;2023-04-03T00:56:22;6.18;;;2.42;;
33654;SDS011;19997;51.274;22.506;2023-04-03T00:58:53;4.53;;;2.38;;
33654;SDS011;19997;51.274;22.506;2023-04-03T01:01:26;3.83;;;2.80;;
33654;SDS011;19997;51.274;22.506;2023-04-03T01:03:54;4.97;;;2.97;;
33654;SDS011;19997;51.274;22.506;2023-04-03T01:06:24;3.55;;;2.55;;
33654;SDS011;19997;51.274;22.506;2023-04-03T01:09:01;8.02;;;2.70;;
33654;SDS011;19997;51.274;22.506;2023-04-03T01:11:29;3.75;;;2.35;;
33654;SDS011;19997;51.274;22.506;2023-04-03T01:13:56;4.53;;;2.58;;
33654;SDS011;19997;51.274;22.506;2023-04-03T01:16:26;3.80;;;2.35;;
33654;SDS011;19997;51.274;22.506;2023-04-03T01:18:57;4.93;;;3.08;;
33654;SDS011;19997;51.274;22.506;2023-04-03T01:24:31;6.18;;;2.17;;
33654;SDS011;19997;51.274;22.506;2023-04-03T01:27:03;3.67;;;2.35;;
33654;SDS011;19997;51.274;22.506;2023-04-03T01:29:32;4.50;;;2.83;;
33654;SDS011;19997;51.274;22.506;2023-04-03T01:32:00;3.65;;;2.05;;
33654;SDS011;19997;51.274;22.506;2023-04-03T01:34:30;3.33;;;2.50;;
33654;SDS011;19997;51.274;22.506;2023-04-03T01:36:58;5.93;;;2.50;;
33654;SDS011;19997;51.274;22.506;2023-04-03T01:39:25;6.15;;;2.92;;
33654;SDS011;19997;51.274;22.506;2023-04-03T01:41:52;5.15;;;2.50;;
33654;SDS011;19997;51.274;22.506;2023-04-03T01:44:27;6.35;;;2.88;;
33654;SDS011;19997;51.274;22.506;2023-04-03T01:46:54;5.80;;;2.75;;
33654;SDS011;19997;51.274;22.506;2023-04-03T01:49:24;4.32;;;2.50;;
33654;SDS011;19997;51.274;22.506;2023-04-03T01:51:51;5.05;;;2.70;;
33654;SDS011;19997;51.274;22.506;2023-04-03T01:54:18;4.88;;;2.80;;
33654;SDS011;19997;51.274;22.506;2023-04-03T01:56:45;7.28;;;2.70;;
33654;SDS011;19997;51.274;22.506;2023-04-03T01:59:13;4.68;;;2.78;;
33654;SDS011;19997;51.274;22.506;2023-04-03T02:01:42;4.37;;;2.30;;
33654;SDS011;19997;51.274;22.506;2023-04-03T02:04:10;2.95;;;2.10;;
33654;SDS011;19997;51.274;22.506;2023-04-03T02:06:39;3.83;;;1.45;;
33654;SDS011;19997;51.274;22.506;2023-04-03T02:09:06;5.68;;;2.63;;
33654;SDS011;19997;51.274;22.506;2023-04-03T02:11:33;1.98;;;1.60;;
33654;SDS011;19997;51.274;22.506;2023-04-03T02:14:01;2.95;;;1.70;;
33654;SDS011;19997;51.274;22.506;2023-04-03T02:16:28;2.38;;;1.42;;
33654;SDS011;19997;51.274;22.506;2023-04-03T02:18:55;2.88;;;1.73;;
33654;SDS011;19997;51.274;22.506;2023-04-03T02:21:23;1.98;;;1.40;;
33654;SDS011;19997;51.274;22.506;2023-04-03T02:23:51;4.38;;;1.65;;
33654;SDS011;19997;51.274;22.506;2023-04-03T02:26:18;1.73;;;1.23;;
33654;SDS011;19997;51.274;22.506;2023-04-03T02:28:46;3.45;;;2.00;;
33654;SDS011;19997;51.274;22.506;2023-04-03T02:31:13;4.13;;;2.10;;
33654;SDS011;19997;51.274;22.506;2023-04-03T02:33:42;7.50;;;2.22;;
33654;SDS011;19997;51.274;22.506;2023-04-03T02:36:12;6.72;;;2.20;;
33654;SDS011;19997;51.274;22.506;2023-04-03T02:38:42;2.58;;;2.00;;
33654;SDS011;19997;51.274;22.506;2023-04-03T02:41:11;3.67;;;2.50;;
33654;SDS011;19997;51.274;22.506;2023-04-03T02:43:39;6.03;;;2.58;;
33654;SDS011;19997;51.274;22.506;2023-04-03T02:46:06;5.22;;;2.45;;
33654;SDS011;19997;51.274;22.506;2023-04-03T02:48:34;4.93;;;2.92;;
33654;SDS011;19997;51.274;22.506;2023-04-03T02:51:02;5.32;;;2.67;;
33654;SDS011;19997;51.274;22.506;2023-04-03T02:53:29;6.07;;;2.95;;
33654;SDS011;19997;51.274;22.506;2023-04-03T02:55:59;3.80;;;2.60;;
33654;SDS011;19997;51.274;22.506;2023-04-03T02:58:27;3.72;;;2.58;;
33654;SDS011;19997;51.274;22.506;2023-04-03T03:00:57;3.22;;;2.45;;
33654;SDS011;19997;51.274;22.506;2023-04-03T03:03:24;7.60;;;2.97;;
33654;SDS011;19997;51.274;22.506;2023-04-03T03:06:00;4.95;;;3.28;;
33654;SDS011;19997;51.274;22.506;2023-04-03T03:08:27;4.50;;;3.05;;
33654;SDS011;19997;51.274;22.506;2023-04-03T03:10:54;5.93;;;3.13;;
33654;SDS011;19997;51.274;22.506;2023-04-03T03:13:22;6.65;;;3.08;;
33654;SDS011;19997;51.274;22.506;2023-04-03T03:15:51;4.15;;;2.80;;
33654;SDS011;19997;51.274;22.506;2023-04-03T03:18:18;3.50;;;2.08;;
33654;SDS011;19997;51.274;22.506;2023-04-03T03:20:47;4.07;;;2.17;;
33654;SDS011;19997;51.274;22.506;2023-04-03T03:23:19;4.93;;;2.17;;
33654;SDS011;19997;51.274;22.506;2023-04-03T03:25:48;6.55;;;1.75;;
33654;SDS011;19997;51.274;22.506;2023-04-03T03:28:15;4.55;;;1.63;;
33654;SDS011;19997;51.274;22.506;2023-04-03T03:30:42;3.42;;;1.70;;
33654;SDS011;19997;51.274;22.506;2023-04-03T03:33:11;3.33;;;1.88;;
33654;SDS011;19997;51.274;22.506;2023-04-03T03:35:38;3.67;;;1.77;;
33654;SDS011;19997;51.274;22.506;2023-04-03T03:38:07;5.55;;;2.40;;
33654;SDS011;19997;51.274;22.506;2023-04-03T03:40:34;3.10;;;1.40;;
33654;SDS011;19997;51.274;22.506;2023-04-03T03:43:01;2.40;;;1.77;;
33654;SDS011;19997;51.274;22.506;2023-04-03T03:45:29;5.00;;;1.98;;
33654;SDS011;19997;51.274;22.506;2023-04-03T03:47:56;4.05;;;1.75;;
33654;SDS011;19997;51.274;22.506;2023-04-03T03:50:25;3.40;;;1.10;;
33654;SDS011;19997;51.274;22.506;2023-04-03T03:52:52;3.47;;;1.60;;
33654;SDS011;19997;51.274;22.506;2023-04-03T03:55:23;2.25;;;1.17;;
33654;SDS011;19997;51.274;22.506;2023-04-03T03:57:53;3.60;;;1.27;;
33654;SDS011;19997;51.274;22.506;2023-04-03T04:00:21;2.17;;;1.15;;
33654;SDS011;19997;51.274;22.506;2023-04-03T04:02:53;2.30;;;1.42;;
33654;SDS011;19997;51.274;22.506;2023-04-03T04:05:26;2.20;;;1.13;;
33654;SDS011;19997;51.274;22.506;2023-04-03T04:07:53;5.22;;;1.52;;
33654;SDS011;19997;51.274;22.506;2023-04-03T04:10:22;4.45;;;1.80;;
33654;SDS011;19997;51.274;22.506;2023-04-03T04:12:49;4.85;;;1.48;;
33654;SDS011;19997;51.274;22.506;2023-04-03T04:15:36;5.03;;;1.70;;
33654;SDS011;19997;51.274;22.506;2023-04-03T04:18:03;3.97;;;1.38;;
33654;SDS011;19997;51.274;22.506;2023-04-03T04:20:32;7.63;;;2.22;;
33654;SDS011;19997;51.274;22.506;2023-04-03T04:23:00;4.97;;;1.38;;
33654;SDS011;19997;51.274;22.506;2023-04-03T04:25:28;4.55;;;1.45;;
33654;SDS011;19997;51.274;22.506;2023-04-03T04:27:55;7.72;;;2.60;;
33654;SDS011;19997;51.274;22.506;2023-04-03T04:30:22;6.53;;;2.20;;
33654;SDS011;19997;51.274;22.506;2023-04-03T04:32:50;3.78;;;1.30;;
33654;SDS011;19997;51.274;22.506;2023-04-03T04:37:51;4.70;;;1.55;;
33654;SDS011;19997;51.274;22.506;2023-04-03T04:40:18;6.32;;;1.27;;
33654;SDS011;19997;51.274;22.506;2023-04-03T04:42:46;4.95;;;1.55;;
33654;SDS011;19997;51.274;22.506;2023-04-03T04:45:13;5.18;;;1.45;;
33654;SDS011;19997;51.274;22.506;2023-04-03T04:47:43;4.03;;;0.98;;
33654;SDS011;19997;51.274;22.506;2023-04-03T04:50:10;3.75;;;1.20;;
33654;SDS011;19997;51.274;22.506;2023-04-03T04:52:38;3.30;;;0.90;;
33654;SDS011;19997;51.274;22.506;2023-04-03T04:55:08;3.22;;;1.50;;
33654;SDS011;19997;51.274;22.506;2023-04-03T04:57:35;3.20;;;1.40;;
33654;SDS011;19997;51.274;22.506;2023-04-03T05:00:05;2.10;;;1.23;;
33654;SDS011;19997;51.274;22.506;2023-04-03T05:02:33;8.20;;;1.83;;
33654;SDS011;19997;51.274;22.506;2023-04-03T05:05:00;4.22;;;1.40;;
33654;SDS011;19997;51.274;22.506;2023-04-03T05:07:28;4.55;;;1.30;;
33654;SDS011;19997;51.274;22.506;2023-04-03T05:09:57;4.32;;;1.08;;
33654;SDS011;19997;51.274;22.506;2023-04-03T05:12:27;5.50;;;1.60;;
33654;SDS011;19997;51.274;22.506;2023-04-03T05:14:58;1.85;;;0.88;;
33654;SDS011;19997;51.274;22.506;2023-04-03T05:17:27;4.50;;;1.33;;
33654;SDS011;19997;51.274;22.506;2023-04-03T05:19:55;4.00;;;1.58;;
33654;SDS011;19997;51.274;22.506;2023-04-03T05:22:24;5.75;;;1.10;;
33654;SDS011;19997;51.274;22.506;2023-04-03T05:24:55;4.65;;;1.38;;
33654;SDS011;19997;51.274;22.506;2023-04-03T05:27:23;2.83;;;1.35;;
33654;SDS011;19997;51.274;22.506;2023-04-03T05:32:22;2.25;;;0.90;;
33654;SDS011;19997;51.274;22.506;2023-04-03T05:34:58;5.63;;;1.60;;
33654;SDS011;19997;51.274;22.506;2023-04-03T05:37:26;4.53;;;1.35;;
33654;SDS011;19997;51.274;22.506;2023-04-03T05:39:53;2.67;;;1.35;;
33654;SDS011;19997;51.274;22.506;2023-04-03T05:42:21;3.58;;;1.42;;
33654;SDS011;19997;51.274;22.506;2023-04-03T05:44:48;5.13;;;1.35;;
33654;SDS011;19997;51.274;22.506;2023-04-03T05:47:17;6.38;;;1.30;;
33654;SDS011;19997;51.274;22.506;2023-04-03T05:49:45;11.15;;;1.40;;
33654;SDS011;19997;51.274;22.506;2023-04-03T05:52:17;3.15;;;1.50;;
33654;SDS011;19997;51.274;22.506;2023-04-03T05:54:49;3.92;;;2.75;;
33654;SDS011;19997;51.274;22.506;2023-04-03T05:57:22;6.75;;;2.15;;
33654;SDS011;19997;51.274;22.506;2023-04-03T05:59:50;2.42;;;1.42;;
33654;SDS011;19997;51.274;22.506;2023-04-03T06:02:22;4.00;;;1.65;;
33654;SDS011;19997;51.274;22.506;2023-04-03T06:04:51;1.83;;;1.45;;
33654;SDS011;19997;51.274;22.506;2023-04-03T06:07:19;2.70;;;1.58;;
33654;SDS011;19997;51.274;22.506;2023-04-03T06:09:48;6.55;;;1.20;;
33654;SDS011;19997;51.274;22.506;2023-04-03T06:12:17;3.38;;;1.35;;
33654;SDS011;19997;51.274;22.506;2023-04-03T06:14:44;5.30;;;1.88;;
33654;SDS011;19997;51.274;22.506;2023-04-03T06:17:13;2.75;;;1.13;;
33654;SDS011;19997;51.274;22.506;2023-04-03T06:19:42;3.55;;;0.80;;
33654;SDS011;19997;51.274;22.506;2023-04-03T06:22:09;1.75;;;1.13;;
33654;SDS011;19997;51.274;22.506;2023-04-03T06:24:37;4.75;;;0.80;;
33654;SDS011;19997;51.274;22.506;2023-04-03T06:27:05;2.72;;;1.05;;
33654;SDS011;19997;51.274;22.506;2023-04-03T06:29:32;1.95;;;1.05;;
33654;SDS011;19997;51.274;22.506;2023-04-03T06:31:59;2.90;;;0.75;;
33654;SDS011;19997;51.274;22.506;2023-04-03T06:34:26;1.60;;;0.75;;
33654;SDS011;19997;51.274;22.506;2023-04-03T06:36:55;2.17;;;1.10;;
33654;SDS011;19997;51.274;22.506;2023-04-03T06:39:22;5.07;;;1.23;;
33654;SDS011;19997;51.274;22.506;2023-04-03T06:41:49;6.30;;;1.88;;
33654;SDS011;19997;51.274;22.506;2023-04-03T06:44:17;2.30;;;1.60;;
33654;SDS011;19997;51.274;22.506;2023-04-03T06:46:44;2.58;;;1.42;;
33654;SDS011;19997;51.274;22.506;2023-04-03T06:49:12;3.30;;;1.55;;
33654;SDS011;19997;51.274;22.506;2023-04-03T06:51:40;1.90;;;0.90;;
33654;SDS011;19997;51.274;22.506;2023-04-03T06:54:08;3.15;;;1.20;;
33654;SDS011;19997;51.274;22.506;2023-04-03T06:56:36;2.28;;;1.15;;
33654;SDS011;19997;51.274;22.506;2023-04-03T06:59:03;2.45;;;1.10;;
33654;SDS011;19997;51.274;22.506;2023-04-03T07:01:30;3.45;;;1.48;;
33654;SDS011;19997;51.274;22.506;2023-04-03T07:03:57;4.78;;;1.60;;
33654;SDS011;19997;51.274;22.506;2023-04-03T07:06:25;4.10;;;1.60;;
33654;SDS011;19997;51.274;22.506;2023-04-03T07:08:53;7.82;;;1.83;;
33654;SDS011;19997;51.274;22.506;2023-04-03T07:11:22;5.47;;;1.33;;
33654;SDS011;19997;51.274;22.506;2023-04-03T07:13:49;5.45;;;1.55;;
33654;SDS011;19997;51.274;22.506;2023-04-03T07:16:16;6.13;;;1.73;;
33654;SDS011;19997;51.274;22.506;2023-04-03T07:18:44;3.80;;;1.60;;
33654;SDS011;19997;51.274;22.506;2023-04-03T07:21:11;3.45;;;1.50;;
33654;SDS011;19997;51.274;22.506;2023-04-03T07:23:39;5.55;;;1.65;;
33654;SDS011;19997;51.274;22.506;2023-04-03T07:26:06;5.32;;;1.13;;
33654;SDS011;19997;51.274;22.506;2023-04-03T07:28:35;4.68;;;1.50;;
33654;SDS011;19997;51.274;22.506;2023-04-03T07:31:04;5.22;;;1.50;;
33654;SDS011;19997;51.274;22.506;2023-04-03T07:33:34;3.83;;;1.42;;
33654;SDS011;19997;51.274;22.506;2023-04-03T07:36:02;4.97;;;1.35;;
33654;SDS011;19997;51.274;22.506;2023-04-03T07:38:32;5.00;;;1.30;;
33654;SDS011;19997;51.274;22.506;2023-04-03T07:41:00;3.60;;;1.58;;
33654;SDS011;19997;51.274;22.506;2023-04-03T07:43:27;2.35;;;1.50;;
33654;SDS011;19997;51.274;22.506;2023-04-03T07:45:56;9.45;;;1.40;;
33654;SDS011;19997;51.274;22.506;2023-04-03T07:48:24;4.60;;;1.50;;
33654;SDS011;19997;51.274;22.506;2023-04-03T07:50:51;2.58;;;1.20;;
33654;SDS011;19997;51.274;22.506;2023-04-03T07:53:19;7.80;;;1.65;;
33654;SDS011;19997;51.274;22.506;2023-04-03T07:55:46;1.52;;;1.20;;
33654;SDS011;19997;51.274;22.506;2023-04-03T07:58:17;7.07;;;1.42;;
33654;SDS011;19997;51.274;22.506;2023-04-03T08:00:44;3.25;;;1.10;;
33654;SDS011;19997;51.274;22.506;2023-04-03T08:03:14;2.03;;;1.25;;
33654;SDS011;19997;51.274;22.506;2023-04-03T08:05:43;3.53;;;1.13;;
33654;SDS011;19997;51.274;22.506;2023-04-03T08:08:13;4.80;;;1.00;;
33654;SDS011;19997;51.274;22.506;2023-04-03T08:10:42;1.63;;;0.93;;
33654;SDS011;19997;51.274;22.506;2023-04-03T08:13:09;1.88;;;1.15;;
33654;SDS011;19997;51.274;22.506;2023-04-03T08:15:36;2.05;;;1.30;;
33654;SDS011;19997;51.274;22.506;2023-04-03T08:18:04;3.60;;;1.50;;
33654;SDS011;19997;51.274;22.506;2023-04-03T08:20:32;2.70;;;1.15;;
33654;SDS011;19997;51.274;22.506;2023-04-03T08:23:00;2.00;;;1.50;;
33654;SDS011;19997;51.274;22.506;2023-04-03T08:25:27;3.78;;;1.02;;
33654;SDS011;19997;51.274;22.506;2023-04-03T08:27:54;2.35;;;1.30;;
33654;SDS011;19997;51.274;22.506;2023-04-03T08:30:21;3.60;;;1.30;;
33654;SDS011;19997;51.274;22.506;2023-04-03T08:32:49;4.85;;;1.50;;
33654;SDS011;19997;51.274;22.506;2023-04-03T08:35:16;5.60;;;1.50;;
33654;SDS011;19997;51.274;22.506;2023-04-03T08:37:46;4.30;;;1.38;;
33654;SDS011;19997;51.274;22.506;2023-04-03T08:40:14;5.50;;;1.50;;
33654;SDS011;19997;51.274;22.506;2023-04-03T08:42:46;2.47;;;1.37;;
33654;SDS011;19997;51.274;22.506;2023-04-03T08:45:26;4.07;;;1.45;;
33654;SDS011;19997;51.274;22.506;2023-04-03T08:47:59;3.45;;;1.38;;
33654;SDS011;19997;51.274;22.506;2023-04-03T08:50:33;4.63;;;1.60;;
33654;SDS011;19997;51.274;22.506;2023-04-03T08:53:06;2.75;;;1.45;;
33654;SDS011;19997;51.274;22.506;2023-04-03T08:55:41;10.82;;;2.10;;
33654;SDS011;19997;51.274;22.506;2023-04-03T08:58:11;3.80;;;1.92;;
33654;SDS011;19997;51.274;22.506;2023-04-03T09:00:43;2.75;;;1.30;;
33654;SDS011;19997;51.274;22.506;2023-04-03T09:03:13;3.45;;;1.55;;
33654;SDS011;19997;51.274;22.506;2023-04-03T09:05:41;8.27;;;1.17;;
33654;SDS011;19997;51.274;22.506;2023-04-03T09:08:17;2.17;;;0.93;;
33654;SDS011;19997;51.274;22.506;2023-04-03T09:10:49;5.60;;;1.50;;
33654;SDS011;19997;51.274;22.506;2023-04-03T09:13:26;6.20;;;1.30;;
33654;SDS011;19997;51.274;22.506;2023-04-03T09:15:59;2.65;;;1.23;;
33654;SDS011;19997;51.274;22.506;2023-04-03T09:18:30;3.17;;;1.73;;
33654;SDS011;19997;51.274;22.506;2023-04-03T09:21:06;3.65;;;1.55;;
33654;SDS011;19997;51.274;22.506;2023-04-03T09:23:42;2.88;;;1.23;;
33654;SDS011;19997;51.274;22.506;2023-04-03T09:26:13;3.17;;;0.95;;
33654;SDS011;19997;51.274;22.506;2023-04-03T09:28:44;2.70;;;1.40;;
33654;SDS011;19997;51.274;22.506;2023-04-03T09:31:14;5.38;;;1.80;;
33654;SDS011;19997;51.274;22.506;2023-04-03T09:33:46;4.05;;;2.70;;
33654;SDS011;19997;51.274;22.506;2023-04-03T09:39:07;4.88;;;2.88;;
33654;SDS011;19997;51.274;22.506;2023-04-03T09:41:37;8.50;;;3.65;;
33654;SDS011;19997;51.274;22.506;2023-04-03T09:44:17;7.93;;;2.35;;
33654;SDS011;19997;51.274;22.506;2023-04-03T09:46:47;16.65;;;4.75;;
33654;SDS011;19997;51.274;22.506;2023-04-03T09:49:15;14.30;;;4.55;;
33654;SDS011;19997;51.274;22.506;2023-04-03T09:51:43;12.40;;;3.90;;
33654;SDS011;19997;51.274;22.506;2023-04-03T09:54:32;6.75;;;2.85;;
33654;SDS011;19997;51.274;22.506;2023-04-03T09:57:05;16.50;;;5.82;;
33654;SDS011;19997;51.274;22.506;2023-04-03T09:59:43;11.35;;;4.32;;
33654;SDS011;19997;51.274;22.506;2023-04-03T10:02:21;6.13;;;2.83;;
33654;SDS011;19997;51.274;22.506;2023-04-03T10:04:55;6.82;;;3.17;;
33654;SDS011;19997;51.274;22.506;2023-04-03T10:07:26;5.32;;;2.28;;
33654;SDS011;19997;51.274;22.506;2023-04-03T10:10:00;16.95;;;4.85;;
33654;SDS011;19997;51.274;22.506;2023-04-03T10:12:29;20.75;;;5.50;;
33654;SDS011;19997;51.274;22.506;2023-04-03T10:15:00;9.52;;;3.65;;
33654;SDS011;19997;51.274;22.506;2023-04-03T10:17:31;8.82;;;2.90;;
33654;SDS011;19997;51.274;22.506;2023-04-03T10:20:06;14.25;;;4.47;;
33654;SDS011;19997;51.274;22.506;2023-04-03T10:22:47;7.35;;;3.85;;
33654;SDS011;19997;51.274;22.506;2023-04-03T10:25:21;6.45;;;2.22;;
33654;SDS011;19997;51.274;22.506;2023-04-03T10:27:58;3.10;;;1.58;;
33654;SDS011;19997;51.274;22.506;2023-04-03T10:30:29;5.35;;;1.40;;
33654;SDS011;19997;51.274;22.506;2023-04-03T10:33:08;6.15;;;2.38;;
33654;SDS011;19997;51.274;22.506;2023-04-03T10:35:51;7.70;;;2.22;;
33654;SDS011;19997;51.274;22.506;2023-04-03T10:38:30;3.88;;;2.20;;
33654;SDS011;19997;51.274;22.506;2023-04-03T10:41:07;2.88;;;1.13;;
33654;SDS011;19997;51.274;22.506;2023-04-03T10:43:40;5.03;;;1.30;;
33654;SDS011;19997;51.274;22.506;2023-04-03T10:46:15;7.13;;;1.95;;
33654;SDS011;19997;51.274;22.506;2023-04-03T10:48:51;1.85;;;1.30;;
33654;SDS011;19997;51.274;22.506;2023-04-03T10:51:31;1.88;;;1.00;;
33654;SDS011;19997;51.274;22.506;2023-04-03T10:54:07;2.83;;;1.40;;
33654;SDS011;19997;51.274;22.506;2023-04-03T10:56:40;6.68;;;1.50;;
33654;SDS011;19997;51.274;22.506;2023-04-03T10:59:21;4.80;;;1.45;;
33654;SDS011;19997;51.274;22.506;2023-04-03T11:01:53;1.95;;;1.15;;
33654;SDS011;19997;51.274;22.506;2023-04-03T11:04:23;4.53;;;1.42;;
33654;SDS011;19997;51.274;22.506;2023-04-03T11:06:54;2.30;;;1.33;;
33654;SDS011;19997;51.274;22.506;2023-04-03T11:09:27;13.60;;;2.35;;
33654;SDS011;19997;51.274;22.506;2023-04-03T11:11:58;6.68;;;3.05;;
33654;SDS011;19997;51.274;22.506;2023-04-03T11:14:31;12.48;;;4.15;;
33654;SDS011;19997;51.274;22.506;2023-04-03T11:17:03;7.13;;;2.72;;
33654;SDS011;19997;51.274;22.506;2023-04-03T11:19:38;6.57;;;2.33;;
33654;SDS011;19997;51.274;22.506;2023-04-03T11:22:11;3.88;;;1.85;;
33654;SDS011;19997;51.274;22.506;2023-04-03T11:24:43;7.47;;;2.92;;
33654;SDS011;19997;51.274;22.506;2023-04-03T11:27:19;5.60;;;1.83;;
33654;SDS011;19997;51.274;22.506;2023-04-03T11:29:49;5.85;;;2.45;;
33654;SDS011;19997;51.274;22.506;2023-04-03T11:32:32;17.90;;;5.97;;
33654;SDS011;19997;51.274;22.506;2023-04-03T11:35:16;17.80;;;5.75;;
33654;SDS011;19997;51.274;22.506;2023-04-03T11:37:45;16.83;;;5.47;;
33654;SDS011;19997;51.274;22.506;2023-04-03T11:40:22;7.43;;;2.20;;
33654;SDS011;19997;51.274;22.506;2023-04-03T11:42:53;2.50;;;1.30;;
33654;SDS011;19997;51.274;22.506;2023-04-03T11:45:33;5.88;;;1.65;;
33654;SDS011;19997;51.274;22.506;2023-04-03T11:48:03;5.07;;;1.30;;
33654;SDS011;19997;51.274;22.506;2023-04-03T11:50:39;5.25;;;1.63;;
33654;SDS011;19997;51.274;22.506;2023-04-03T11:56:03;1.88;;;1.50;;
33654;SDS011;19997;51.274;22.506;2023-04-03T12:01:53;3.70;;;1.58;;
33654;SDS011;19997;51.274;22.506;2023-04-03T12:04:23;4.18;;;2.25;;
33654;SDS011;19997;51.274;22.506;2023-04-03T12:07:02;5.10;;;2.22;;
33654;SDS011;19997;51.274;22.506;2023-04-03T12:12:29;4.15;;;1.45;;
33654;SDS011;19997;51.274;22.506;2023-04-03T12:21:24;3.50;;;1.45;;
33654;SDS011;19997;51.274;22.506;2023-04-03T12:24:23;4.85;;;1.52;;
33654;SDS011;19997;51.274;22.506;2023-04-03T12:27:01;3.70;;;1.20;;
33654;SDS011;19997;51.274;22.506;2023-04-03T12:29:33;5.55;;;1.20;;
33654;SDS011;19997;51.274;22.506;2023-04-03T12:32:08;3.63;;;1.67;;
33654;SDS011;19997;51.274;22.506;2023-04-03T12:34:53;2.83;;;1.80;;
33654;SDS011;19997;51.274;22.506;2023-04-03T12:37:41;1.80;;;1.17;;
33654;SDS011;19997;51.274;22.506;2023-04-03T12:40:17;2.08;;;1.00;;
33654;SDS011;19997;51.274;22.506;2023-04-03T12:43:13;2.92;;;1.30;;
33654;SDS011;19997;51.274;22.506;2023-04-03T12:45:52;2.35;;;1.10;;
33654;SDS011;19997;51.274;22.506;2023-04-03T12:48:27;5.10;;;1.20;;
33654;SDS011;19997;51.274;22.506;2023-04-03T12:50:57;2.80;;;1.60;;
33654;SDS011;19997;51.274;22.506;2023-04-03T12:53:25;2.47;;;1.77;;
33654;SDS011;19997;51.274;22.506;2023-04-03T12:55:55;6.45;;;2.10;;
33654;SDS011;19997;51.274;22.506;2023-04-03T12:58:24;4.93;;;1.40;;
33654;SDS011;19997;51.274;22.506;2023-04-03T13:01:00;5.73;;;2.00;;
33654;SDS011;19997;51.274;22.506;2023-04-03T13:03:28;3.35;;;1.60;;
33654;SDS011;19997;51.274;22.506;2023-04-03T13:05:59;2.30;;;1.20;;
33654;SDS011;19997;51.274;22.506;2023-04-03T13:08:28;3.08;;;1.60;;
33654;SDS011;19997;51.274;22.506;2023-04-03T13:10:58;7.28;;;2.20;;
33654;SDS011;19997;51.274;22.506;2023-04-03T13:13:27;2.78;;;1.67;;
33654;SDS011;19997;51.274;22.506;2023-04-03T13:15:55;4.63;;;2.08;;
33654;SDS011;19997;51.274;22.506;2023-04-03T13:18:23;4.45;;;2.15;;
33654;SDS011;19997;51.274;22.506;2023-04-03T13:20:52;7.47;;;3.10;;
33654;SDS011;19997;51.274;22.506;2023-04-03T13:23:24;3.38;;;1.80;;
33654;SDS011;19997;51.274;22.506;2023-04-03T13:25:52;3.88;;;1.75;;
33654;SDS011;19997;51.274;22.506;2023-04-03T13:28:21;9.40;;;4.40;;
33654;SDS011;19997;51.274;22.506;2023-04-03T13:33:24;5.97;;;2.30;;
33654;SDS011;19997;51.274;22.506;2023-04-03T13:35:56;3.85;;;1.73;;
33654;SDS011;19997;51.274;22.506;2023-04-03T13:38:29;4.07;;;2.28;;
33654;SDS011;19997;51.274;22.506;2023-04-03T13:40:59;3.08;;;1.50;;
33654;SDS011;19997;51.274;22.506;2023-04-03T13:43:30;1.60;;;1.20;;
33654;SDS011;19997;51.274;22.506;2023-04-03T13:46:00;6.57;;;1.77;;
33654;SDS011;19997;51.274;22.506;2023-04-03T13:48:38;2.78;;;1.30;;
33654;SDS011;19997;51.274;22.506;2023-04-03T13:51:16;2.88;;;1.50;;
33654;SDS011;19997;51.274;22.506;2023-04-03T13:53:49;5.45;;;1.00;;
33654;SDS011;19997;51.274;22.506;2023-04-03T13:56:19;2.25;;;0.95;;
33654;SDS011;19997;51.274;22.506;2023-04-03T13:58:59;3.78;;;1.42;;
33654;SDS011;19997;51.274;22.506;2023-04-03T14:01:39;4.95;;;1.90;;
33654;SDS011;19997;51.274;22.506;2023-04-03T14:04:15;3.95;;;1.67;;
33654;SDS011;19997;51.274;22.506;2023-04-03T14:06:45;4.38;;;1.60;;
33654;SDS011;19997;51.274;22.506;2023-04-03T14:09:14;3.60;;;1.85;;
33654;SDS011;19997;51.274;22.506;2023-04-03T14:11:43;4.75;;;1.08;;
33654;SDS011;19997;51.274;22.506;2023-04-03T14:14:12;3.22;;;1.58;;
33654;SDS011;19997;51.274;22.506;2023-04-03T14:16:42;4.15;;;1.10;;
33654;SDS011;19997;51.274;22.506;2023-04-03T14:19:16;2.17;;;1.42;;
33654;SDS011;19997;51.274;22.506;2023-04-03T14:21:46;1.38;;;1.10;;
33654;SDS011;19997;51.274;22.506;2023-04-03T14:24:15;3.88;;;1.63;;
33654;SDS011;19997;51.274;22.506;2023-04-03T14:26:43;5.25;;;1.48;;
33654;SDS011;19997;51.274;22.506;2023-04-03T14:29:10;3.63;;;1.27;;
33654;SDS011;19997;51.274;22.506;2023-04-03T14:31:38;3.88;;;1.38;;
33654;SDS011;19997;51.274;22.506;2023-04-03T14:34:05;5.32;;;1.50;;
33654;SDS011;19997;51.274;22.506;2023-04-03T14:36:33;5.93;;;1.10;;
33654;SDS011;19997;51.274;22.506;2023-04-03T14:39:00;5.22;;;2.03;;
33654;SDS011;19997;51.274;22.506;2023-04-03T14:41:29;4.50;;;1.73;;
33654;SDS011;19997;51.274;22.506;2023-04-03T14:43:56;2.95;;;1.05;;
33654;SDS011;19997;51.274;22.506;2023-04-03T14:46:25;3.85;;;1.40;;
33654;SDS011;19997;51.274;22.506;2023-04-03T14:48:54;4.28;;;1.35;;
33654;SDS011;19997;51.274;22.506;2023-04-03T14:51:21;4.20;;;1.17;;
33654;SDS011;19997;51.274;22.506;2023-04-03T14:53:48;3.92;;;1.45;;
33654;SDS011;19997;51.274;22.506;2023-04-03T14:56:17;3.47;;;1.27;;
33654;SDS011;19997;51.274;22.506;2023-04-03T15:01:16;8.55;;;2.83;;
33654;SDS011;19997;51.274;22.506;2023-04-03T15:03:43;8.07;;;2.45;;
33654;SDS011;19997;51.274;22.506;2023-04-03T15:06:11;12.40;;;4.57;;
33654;SDS011;19997;51.274;22.506;2023-04-03T15:08:40;17.15;;;5.20;;
33654;SDS011;19997;51.274;22.506;2023-04-03T15:11:08;14.70;;;5.00;;
33654;SDS011;19997;51.274;22.506;2023-04-03T15:13:35;5.40;;;2.17;;
33654;SDS011;19997;51.274;22.506;2023-04-03T15:16:04;11.70;;;4.68;;
33654;SDS011;19997;51.274;22.506;2023-04-03T15:18:32;14.90;;;4.38;;
33654;SDS011;19997;51.274;22.506;2023-04-03T15:21:04;4.55;;;2.15;;
33654;SDS011;19997;51.274;22.506;2023-04-03T15:23:31;13.05;;;2.90;;